Terminal Aerodrome Forecast
Issued by NWS Green Bay, WI

Home | Current Version | Previous Version | Text Only | Print | Product List | Glossary Off
Versions: 1 2 3 4 5 6 7 8 9 10 11 12 13 14 15 16 17 18 19 20 21 22 23 24 25 26

000
FTUS43 KGRB 211131
TAFGRB
TAF
KGRB 211131Z 2112/2212 10005KT P6SM BKN250
     FM211600 11008KT P6SM -SHRA OVC060
     FM211800 11008KT P6SM -SHRA OVC045
     FM212100 10008KT P6SM -SHRA OVC024
     FM212300 08005KT 6SM -SHRA BR OVC014
     FM220400 03003KT 3SM BR OVC007=

USA.gov is the U.S. government's official web portal to all federal, state and local government web resources and services.